createdAt,value
2023-04-15T00:01:39.196Z,43.96
2023-04-15T00:04:33.804Z,44.08
2023-04-15T00:07:28.118Z,43.94
2023-04-15T00:10:21.931Z,43.91
2023-04-15T00:13:16.625Z,44.06
2023-04-15T00:16:12.419Z,44.06
2023-04-15T00:19:06.754Z,44.05
2023-04-15T00:21:48.111Z,44.05
2023-04-15T00:24:43.043Z,44.03
2023-04-15T00:27:36.879Z,43.94
2023-04-15T00:30:31.500Z,43.96
2023-04-15T00:33:25.434Z,43.90
2023-04-15T00:36:19.473Z,44.06
2023-04-15T00:39:13.421Z,43.97
2023-04-15T00:42:07.154Z,43.83
2023-04-15T00:45:01.204Z,43.75
2023-04-15T00:47:55.778Z,43.73
2023-04-15T00:50:51.232Z,43.77
2023-04-15T00:53:45.025Z,43.70
2023-04-15T00:56:40.200Z,43.73
2023-04-15T00:59:34.538Z,43.74
2023-04-15T01:02:28.298Z,43.70
2023-04-15T01:05:22.320Z,43.71
2023-04-15T01:08:16.146Z,43.93
2023-04-15T01:11:10.651Z,43.81
2023-04-15T01:14:04.849Z,43.92
2023-04-15T01:16:58.607Z,44.12
2023-04-15T01:19:52.673Z,43.70
2023-04-15T01:22:46.535Z,44.08
2023-04-15T01:25:40.582Z,44.10
2023-04-15T01:28:34.458Z,44.41
2023-04-15T01:31:28.331Z,45.00
2023-04-15T01:34:22.297Z,44.86
2023-04-15T01:37:16.392Z,45.02
2023-04-15T01:40:13.847Z,45.09
2023-04-15T01:43:07.510Z,44.56
2023-04-15T01:46:01.725Z,44.64
2023-04-15T01:48:55.767Z,44.59
2023-04-15T01:51:49.604Z,44.79
2023-04-15T01:54:43.341Z,44.89
2023-04-15T01:57:37.081Z,44.67
2023-04-15T02:00:32.575Z,44.67
2023-04-15T02:03:27.746Z,44.52
2023-04-15T02:06:21.624Z,44.50
2023-04-15T02:09:15.375Z,44.63
2023-04-15T02:12:09.577Z,44.39
2023-04-15T02:15:03.475Z,44.60
2023-04-15T02:17:59.300Z,44.51
2023-04-15T02:20:53.908Z,44.52
2023-04-15T02:23:48.712Z,44.81
2023-04-15T02:26:42.353Z,44.73
2023-04-15T02:29:37.191Z,44.61
2023-04-15T02:32:31.657Z,44.86
2023-04-15T02:35:25.947Z,44.94
2023-04-15T02:38:19.656Z,44.96
2023-04-15T02:41:13.688Z,44.95
2023-04-15T02:44:11.314Z,44.96
2023-04-15T02:47:07.008Z,44.87
2023-04-15T02:50:01.817Z,44.98
2023-04-15T02:52:55.399Z,44.83
2023-04-15T02:55:49.212Z,45.01
2023-04-15T02:58:44.717Z,44.90
2023-04-15T03:01:38.474Z,44.76
2023-04-15T03:04:32.179Z,44.54
2023-04-15T03:07:25.910Z,45.01
2023-04-15T03:10:20.038Z,44.68
2023-04-15T03:13:14.056Z,44.80
2023-04-15T03:16:08.750Z,44.83
2023-04-15T03:19:02.655Z,44.89
2023-04-15T03:21:57.133Z,44.69
2023-04-15T03:24:50.774Z,44.63
2023-04-15T03:27:44.723Z,44.75
2023-04-15T03:30:38.396Z,44.77
2023-04-15T03:33:32.153Z,44.75
2023-04-15T03:36:27.279Z,44.50
2023-04-15T03:39:21.434Z,44.49
2023-04-15T03:42:15.636Z,44.89
2023-04-15T03:45:11.665Z,44.61
2023-04-15T03:48:16.713Z,44.65
2023-04-15T03:51:12.396Z,44.96
2023-04-15T03:54:06.391Z,44.41
2023-04-15T03:56:59.992Z,44.35
2023-04-15T03:59:53.731Z,44.13
2023-04-15T04:02:47.578Z,44.14
2023-04-15T04:05:44.052Z,43.93
2023-04-15T04:08:37.788Z,43.96
2023-04-15T04:11:31.758Z,43.79
2023-04-15T04:14:29.665Z,43.64
2023-04-15T04:17:23.609Z,43.50
2023-04-15T04:20:17.596Z,43.50
2023-04-15T04:23:11.639Z,43.55
2023-04-15T04:26:05.361Z,43.31
2023-04-15T04:28:59.099Z,43.34
2023-04-15T04:31:52.829Z,43.44
2023-04-15T04:34:46.788Z,43.29
2023-04-15T04:37:40.625Z,43.33
2023-04-15T04:40:34.977Z,42.98
2023-04-15T04:43:28.917Z,43.47
2023-04-15T04:46:23.787Z,43.39
2023-04-15T04:49:17.627Z,43.37
2023-04-15T04:52:11.635Z,45.11
2023-04-15T04:55:05.922Z,45.93
2023-04-15T04:58:01.257Z,45.39
2023-04-15T05:00:55.244Z,45.10
2023-04-15T05:03:45.799Z,45.13
2023-04-15T05:06:39.618Z,44.76
2023-04-15T05:09:36.111Z,44.39
2023-04-15T05:12:29.995Z,44.71
2023-04-15T05:15:23.970Z,44.54
2023-04-15T05:18:17.649Z,44.54
2023-04-15T05:21:11.863Z,44.42
2023-04-15T05:24:07.131Z,43.84
2023-04-15T05:27:01.905Z,44.06
2023-04-15T05:29:56.611Z,44.14
2023-04-15T05:32:50.975Z,44.20
2023-04-15T05:35:44.633Z,44.58
2023-04-15T05:38:38.459Z,43.85
2023-04-15T05:41:32.437Z,43.81
2023-04-15T05:44:26.894Z,43.91
2023-04-15T05:47:20.492Z,44.01
2023-04-15T05:50:15.129Z,43.94
2023-04-15T05:53:08.998Z,44.39
2023-04-15T05:56:02.636Z,43.96
2023-04-15T05:58:56.953Z,43.78
2023-04-15T06:01:52.078Z,43.89
2023-04-15T06:04:45.744Z,43.87
2023-04-15T06:07:39.704Z,43.56
2023-04-15T06:10:36.723Z,43.73
2023-04-15T06:13:30.655Z,43.57
2023-04-15T06:16:24.341Z,43.43
2023-04-15T06:19:18.379Z,43.32
2023-04-15T06:22:12.109Z,43.79
2023-04-15T06:25:08.162Z,43.62
2023-04-15T06:28:02.312Z,43.29
2023-04-15T06:30:57.326Z,43.01
2023-04-15T06:33:51.376Z,43.73
2023-04-15T06:36:45.558Z,43.95
2023-04-15T06:39:39.587Z,43.40
2023-04-15T06:42:34.075Z,43.51
2023-04-15T06:45:27.805Z,43.05
2023-04-15T06:48:22.070Z,42.72
2023-04-15T06:51:15.764Z,43.56
2023-04-15T06:54:09.858Z,43.69
2023-04-15T06:57:03.665Z,43.50
2023-04-15T06:59:57.356Z,43.66
2023-04-15T07:03:13.275Z,43.11
2023-04-15T07:06:07.688Z,42.68
2023-04-15T07:09:02.315Z,42.69
2023-04-15T07:11:56.522Z,43.07
2023-04-15T07:14:50.603Z,42.50
2023-04-15T07:17:45.014Z,42.08
2023-04-15T07:20:38.918Z,42.85
2023-04-15T07:23:32.766Z,43.00
2023-04-15T07:26:26.387Z,42.25
2023-04-15T07:29:20.029Z,42.54
2023-04-15T07:32:13.644Z,42.63
2023-04-15T07:35:08.429Z,42.63
2023-04-15T07:38:02.498Z,43.20
2023-04-15T07:40:56.597Z,43.04
2023-04-15T07:43:50.752Z,43.08
2023-04-15T07:46:44.528Z,42.16
2023-04-15T07:49:38.139Z,42.16
2023-04-15T07:52:35.295Z,38.47
2023-04-15T07:55:30.542Z,38.46
2023-04-15T07:58:24.255Z,38.61
2023-04-15T08:01:17.963Z,38.20
2023-04-15T08:04:12.442Z,36.26
2023-04-15T08:07:07.099Z,36.20
2023-04-15T08:10:00.647Z,36.86
2023-04-15T08:12:55.330Z,35.19
2023-04-15T08:15:54.902Z,36.14
2023-04-15T08:18:48.756Z,39.07
2023-04-15T08:21:42.465Z,42.63
2023-04-15T08:24:21.341Z,37.57
2023-04-15T08:27:15.036Z,36.60
2023-04-15T08:30:11.603Z,35.68
2023-04-15T08:33:05.273Z,35.22
2023-04-15T08:35:58.994Z,35.24
2023-04-15T08:38:52.694Z,36.24
2023-04-15T08:41:53.249Z,34.90
2023-04-15T08:44:49.391Z,35.11
2023-04-15T08:47:44.211Z,34.57
2023-04-15T08:50:38.119Z,34.49
2023-04-15T08:53:33.733Z,34.95
2023-04-15T08:56:29.321Z,34.80
2023-04-15T08:59:23.665Z,34.53
2023-04-15T09:02:17.631Z,36.46
2023-04-15T09:05:13.385Z,35.29
2023-04-15T09:08:07.600Z,34.55
2023-04-15T09:11:01.470Z,34.41
2023-04-15T09:13:55.438Z,34.32
2023-04-15T09:17:06.865Z,35.36
2023-04-15T09:20:15.921Z,34.79
2023-04-15T09:23:17.618Z,35.09
2023-04-15T09:26:11.500Z,38.33
2023-04-15T09:29:11.020Z,39.48
2023-04-15T09:32:14.693Z,39.94
2023-04-15T09:35:17.258Z,39.53
2023-04-15T09:38:13.044Z,40.14
2023-04-15T09:41:18.456Z,38.56
2023-04-15T09:44:25.176Z,39.11
2023-04-15T09:47:33.314Z,39.68
2023-04-15T09:50:30.667Z,39.19
2023-04-15T09:53:26.396Z,38.11
2023-04-15T09:56:27.937Z,37.57
2023-04-15T09:59:21.921Z,38.70
2023-04-15T10:02:16.925Z,39.07
2023-04-15T10:05:15.006Z,38.23
2023-04-15T10:08:09.431Z,37.40
2023-04-15T10:11:05.666Z,36.66
2023-04-15T10:14:00.326Z,36.43
2023-04-15T10:16:57.740Z,36.77
2023-04-15T10:19:54.493Z,36.51
2023-04-15T10:22:49.806Z,37.22
2023-04-15T10:25:44.416Z,37.01
2023-04-15T10:28:38.106Z,38.70
2023-04-15T10:31:32.540Z,38.13
2023-04-15T10:34:27.943Z,38.80
2023-04-15T10:37:37.375Z,38.57
2023-04-15T10:40:33.653Z,38.79
2023-04-15T10:43:30.415Z,39.00
2023-04-15T10:46:37.209Z,38.28
2023-04-15T10:49:31.263Z,39.02
2023-04-15T10:52:30.041Z,39.40
2023-04-15T10:55:27.419Z,39.04
2023-04-15T10:58:24.296Z,39.18
2023-04-15T11:01:18.105Z,39.40
2023-04-15T11:04:13.106Z,38.95
2023-04-15T11:07:11.562Z,39.12
2023-04-15T11:10:26.042Z,38.66
2023-04-15T11:13:28.933Z,38.68
2023-04-15T11:16:23.005Z,38.94
2023-04-15T11:19:16.735Z,38.94
2023-04-15T11:22:14.403Z,39.11
2023-04-15T11:25:07.480Z,39.04
2023-04-15T11:28:03.299Z,38.57
2023-04-15T11:30:57.945Z,38.67
2023-04-15T11:34:12.128Z,38.95
2023-04-15T11:37:08.311Z,38.43
2023-04-15T11:40:03.545Z,38.50
2023-04-15T11:43:11.512Z,38.44
2023-04-15T11:46:05.773Z,37.76
2023-04-15T11:49:00.331Z,37.63
2023-04-15T11:51:54.170Z,38.10
2023-04-15T11:54:48.282Z,38.63
2023-04-15T11:57:42.079Z,38.40
2023-04-15T12:00:36.576Z,38.59
2023-04-15T12:03:33.038Z,38.72
2023-04-15T12:06:34.998Z,38.52
2023-04-15T12:09:29.979Z,37.83
2023-04-15T12:12:27.971Z,38.07
2023-04-15T12:15:25.344Z,38.34
2023-04-15T12:18:26.218Z,37.65
2023-04-15T12:21:21.811Z,38.32
2023-04-15T12:24:16.344Z,38.04
2023-04-15T12:27:12.440Z,36.57
2023-04-15T12:30:11.690Z,37.52
2023-04-15T12:33:06.355Z,37.50
2023-04-15T12:36:00.533Z,35.14
2023-04-15T12:39:07.796Z,36.10
2023-04-15T12:42:02.366Z,36.93
2023-04-15T12:44:58.430Z,36.10
2023-04-15T12:47:52.215Z,36.17
2023-04-15T12:50:45.827Z,35.31
2023-04-15T12:53:39.776Z,34.78
2023-04-15T12:56:33.935Z,34.08
2023-04-15T12:59:27.734Z,34.83
2023-04-15T13:02:25.698Z,36.43
2023-04-15T13:05:19.838Z,35.08
2023-04-15T13:08:13.514Z,33.92
2023-04-15T13:11:07.603Z,34.76
2023-04-15T13:14:02.316Z,36.77
2023-04-15T13:16:56.454Z,35.29
2023-04-15T13:19:50.455Z,34.38
2023-04-15T13:22:44.432Z,34.98
2023-04-15T13:25:38.175Z,34.82
2023-04-15T13:28:31.948Z,34.07
2023-04-15T13:31:25.721Z,32.88
2023-04-15T13:34:19.735Z,33.01
2023-04-15T13:37:14.074Z,33.36
2023-04-15T13:40:09.997Z,33.29
2023-04-15T13:43:04.759Z,33.75
2023-04-15T13:45:59.073Z,33.72
2023-04-15T13:48:53.030Z,33.55
2023-04-15T13:51:46.994Z,34.76
2023-04-15T13:54:40.899Z,35.63
2023-04-15T13:57:35.452Z,36.36
2023-04-15T14:00:29.511Z,36.75
2023-04-15T14:03:23.264Z,36.86
2023-04-15T14:06:17.274Z,37.30
2023-04-15T14:09:11.397Z,37.62
2023-04-15T14:12:05.981Z,39.25
2023-04-15T14:14:59.834Z,38.04
2023-04-15T14:17:53.981Z,37.98
2023-04-15T14:20:48.072Z,39.20
2023-04-15T14:23:41.969Z,38.31
2023-04-15T14:26:35.788Z,39.17
2023-04-15T14:29:29.970Z,39.36
2023-04-15T14:32:26.256Z,38.81
2023-04-15T14:35:20.897Z,36.99
2023-04-15T14:38:14.833Z,37.64
2023-04-15T14:41:12.298Z,38.07
2023-04-15T14:44:06.138Z,37.89
2023-04-15T14:47:00.033Z,39.05
2023-04-15T14:50:02.399Z,38.83
2023-04-15T14:52:56.250Z,38.86
2023-04-15T14:55:50.528Z,38.91
2023-04-15T14:58:44.665Z,38.88
2023-04-15T15:01:40.296Z,38.38
2023-04-15T15:04:36.034Z,38.30
2023-04-15T15:07:30.070Z,38.40
2023-04-15T15:10:33.698Z,39.19
2023-04-15T15:13:38.895Z,38.93
2023-04-15T15:16:33.265Z,39.77
2023-04-15T15:19:27.439Z,38.95
2023-04-15T15:22:21.513Z,39.60
2023-04-15T15:25:15.361Z,39.18
2023-04-15T15:28:09.449Z,38.55
2023-04-15T15:31:04.517Z,38.86
2023-04-15T15:33:58.651Z,39.00
2023-04-15T15:36:53.059Z,39.14
2023-04-15T15:39:50.841Z,39.35
2023-04-15T15:42:45.146Z,39.31
2023-04-15T15:45:38.965Z,39.12
2023-04-15T15:48:34.268Z,38.80
2023-04-15T15:51:28.769Z,38.59
2023-04-15T15:54:22.676Z,37.43
2023-04-15T15:57:16.860Z,36.90
2023-04-15T16:00:13.945Z,36.66
2023-04-15T16:03:08.172Z,37.54
2023-04-15T16:06:02.138Z,36.89
2023-04-15T16:08:55.879Z,36.02
2023-04-15T16:11:50.304Z,33.22
2023-04-15T16:14:44.415Z,34.48
2023-04-15T16:17:38.407Z,36.22
2023-04-15T16:20:32.179Z,34.00
2023-04-15T16:23:26.008Z,33.62
2023-04-15T16:26:20.080Z,33.05
2023-04-15T16:29:14.272Z,33.69
2023-04-15T16:32:09.469Z,34.92
2023-04-15T16:35:03.595Z,35.99
2023-04-15T16:37:57.785Z,37.25
2023-04-15T16:40:51.567Z,38.01
2023-04-15T16:43:44.626Z,38.70
2023-04-15T16:46:40.802Z,35.58
2023-04-15T16:49:35.580Z,35.17
2023-04-15T16:52:30.231Z,35.51
2023-04-15T16:55:24.634Z,35.52
2023-04-15T16:58:18.553Z,35.82
2023-04-15T17:01:12.335Z,36.13
2023-04-15T17:04:06.738Z,36.80
2023-04-15T17:07:00.433Z,37.56
2023-04-15T17:09:54.904Z,37.76
2023-04-15T17:12:49.780Z,38.79
2023-04-15T17:15:43.892Z,39.29
2023-04-15T17:18:37.791Z,38.56
2023-04-15T17:21:32.647Z,37.81
2023-04-15T17:24:26.571Z,37.79
2023-04-15T17:27:21.272Z,37.82
2023-04-15T17:30:16.226Z,36.70
2023-04-15T17:33:55.826Z,36.47
2023-04-15T17:36:24.745Z,36.20
2023-04-15T17:39:18.931Z,36.30
2023-04-15T17:42:14.448Z,37.63
2023-04-15T17:45:10.798Z,37.30
2023-04-15T17:48:05.620Z,37.98
2023-04-15T17:50:59.671Z,38.20
2023-04-15T17:53:53.637Z,38.36
2023-04-15T17:56:49.079Z,37.97
2023-04-15T17:59:44.042Z,39.45
2023-04-15T18:02:38.116Z,42.93
2023-04-15T18:05:32.308Z,41.80
2023-04-15T18:08:26.118Z,40.71
2023-04-15T18:11:20.535Z,41.06
2023-04-15T18:14:26.669Z,40.55
2023-04-15T18:17:27.600Z,41.71
2023-04-15T18:20:21.726Z,41.72
2023-04-15T18:23:15.983Z,41.93
2023-04-15T18:26:10.259Z,41.79
2023-04-15T18:29:04.567Z,40.66
2023-04-15T18:31:59.958Z,41.17
2023-04-15T18:34:55.567Z,41.32
2023-04-15T18:37:49.704Z,42.54
2023-04-15T18:40:43.807Z,43.32
2023-04-15T18:43:37.852Z,42.84
2023-04-15T18:46:31.947Z,42.21
2023-04-15T18:49:27.166Z,42.27
2023-04-15T18:52:21.409Z,42.19
2023-04-15T18:55:16.567Z,42.19
2023-04-15T18:58:12.631Z,42.17
2023-04-15T19:01:06.778Z,42.31
2023-04-15T19:04:03.343Z,42.87
2023-04-15T19:06:58.732Z,42.78
2023-04-15T19:09:52.566Z,43.71
2023-04-15T19:12:46.443Z,43.84
2023-04-15T19:15:40.354Z,43.33
2023-04-15T19:18:34.566Z,42.86
2023-04-15T19:21:29.998Z,42.58
2023-04-15T19:24:24.287Z,42.60
2023-04-15T19:27:18.242Z,42.75
2023-04-15T19:30:14.328Z,42.47
2023-04-15T19:33:08.591Z,42.47
2023-04-15T19:36:05.348Z,42.30
2023-04-15T19:39:00.115Z,42.25
2023-04-15T19:41:55.528Z,42.43
2023-04-15T19:44:50.161Z,42.53
2023-04-15T19:47:44.285Z,42.70
2023-04-15T19:50:38.256Z,43.42
2023-04-15T19:53:32.427Z,45.80
2023-04-15T19:56:26.697Z,46.65
2023-04-15T19:59:20.564Z,47.03
2023-04-15T20:02:14.444Z,47.21
2023-04-15T20:05:10.537Z,47.81
2023-04-15T20:08:04.641Z,48.34
2023-04-15T20:10:59.541Z,47.62
2023-04-15T20:13:53.223Z,45.70
2023-04-15T20:16:47.686Z,44.57
2023-04-15T20:19:41.339Z,44.38
2023-04-15T20:22:35.403Z,43.95
2023-04-15T20:25:29.305Z,43.60
2023-04-15T20:28:26.119Z,43.19
2023-04-15T20:31:20.129Z,43.35
2023-04-15T20:34:13.965Z,42.89
2023-04-15T20:37:08.043Z,42.81
2023-04-15T20:40:02.505Z,42.85
2023-04-15T20:42:56.321Z,42.53
2023-04-15T20:45:50.628Z,42.57
2023-04-15T20:48:44.296Z,42.17
2023-04-15T20:51:38.324Z,42.19
2023-04-15T20:54:32.152Z,42.34
2023-04-15T20:57:25.918Z,42.36
2023-04-15T21:00:19.761Z,42.29
2023-04-15T21:03:13.930Z,42.38
2023-04-15T21:06:07.939Z,42.15
2023-04-15T21:09:01.560Z,42.78
2023-04-15T21:12:01.071Z,42.84
2023-04-15T21:14:55.524Z,42.41
2023-04-15T21:17:49.144Z,42.34
2023-04-15T21:20:43.495Z,42.04
2023-04-15T21:23:37.230Z,41.96
2023-04-15T21:26:30.912Z,41.98
2023-04-15T21:29:24.959Z,41.88
2023-04-15T21:32:18.769Z,42.14
2023-04-15T21:35:13.565Z,41.83
2023-04-15T21:38:07.198Z,41.90
2023-04-15T21:41:06.424Z,41.75
2023-04-15T21:44:00.066Z,41.76
2023-04-15T21:46:54.363Z,41.76
2023-04-15T21:49:47.975Z,41.70
2023-04-15T21:52:42.062Z,41.48
2023-04-15T21:55:35.892Z,42.09
2023-04-15T21:58:29.498Z,42.31
2023-04-15T22:01:23.067Z,42.17
2023-04-15T22:04:17.087Z,43.49
2023-04-15T22:07:10.874Z,42.98
2023-04-15T22:10:05.049Z,43.15
2023-04-15T22:13:02.434Z,43.07
2023-04-15T22:15:46.311Z,42.91
2023-04-15T22:18:39.948Z,43.70
2023-04-15T22:21:33.541Z,43.83
2023-04-15T22:24:38.182Z,43.35
2023-04-15T22:27:34.888Z,43.75
2023-04-15T22:30:29.239Z,43.46
2023-04-15T22:33:23.312Z,43.16
2023-04-15T22:36:17.148Z,42.96
2023-04-15T22:39:11.061Z,42.67
2023-04-15T22:42:04.747Z,42.64
2023-04-15T22:44:58.597Z,42.25
2023-04-15T22:47:52.190Z,42.69
2023-04-15T22:50:46.145Z,42.58
2023-04-15T22:53:39.708Z,41.61
2023-04-15T22:56:33.380Z,41.88
2023-04-15T22:59:27.232Z,41.54
2023-04-15T23:02:21.063Z,41.62
2023-04-15T23:05:15.556Z,41.77
2023-04-15T23:08:09.783Z,41.22
2023-04-15T23:11:03.741Z,41.28
2023-04-15T23:13:57.418Z,41.29
2023-04-15T23:16:51.135Z,41.29
2023-04-15T23:19:44.673Z,41.24
2023-04-15T23:22:38.535Z,41.19
2023-04-15T23:25:32.214Z,41.06
2023-04-15T23:28:26.050Z,41.08
2023-04-15T23:31:19.761Z,40.77
2023-04-15T23:34:13.613Z,40.98
2023-04-15T23:37:07.364Z,40.97
2023-04-15T23:40:01.033Z,41.39
2023-04-15T23:42:54.634Z,43.00
2023-04-15T23:45:48.448Z,42.40
2023-04-15T23:48:42.115Z,41.82
2023-04-15T23:51:36.184Z,41.45
2023-04-15T23:54:20.073Z,41.13
2023-04-15T23:57:14.204Z,41.26
